sensor_id;sensor_type;location;lat;lon;timestamp;temperature;humidity
33863;DHT22;20158;51.436;-2.742;2023-05-31T00:01:21;19.40;42.70
33863;DHT22;20158;51.436;-2.742;2023-05-31T00:03:48;19.40;42.80
33863;DHT22;20158;51.436;-2.742;2023-05-31T00:06:14;19.30;42.60
33863;DHT22;20158;51.436;-2.742;2023-05-31T00:08:41;19.30;42.80
33863;DHT22;20158;51.436;-2.742;2023-05-31T00:11:10;19.30;42.80
33863;DHT22;20158;51.436;-2.742;2023-05-31T00:13:39;19.20;42.70
33863;DHT22;20158;51.436;-2.742;2023-05-31T00:16:06;19.20;42.80
33863;DHT22;20158;51.436;-2.742;2023-05-31T00:18:32;19.20;42.90
33863;DHT22;20158;51.436;-2.742;2023-05-31T00:21:02;19.10;43.30
33863;DHT22;20158;51.436;-2.742;2023-05-31T00:23:28;19.10;42.80
33863;DHT22;20158;51.436;-2.742;2023-05-31T00:25:57;19.10;42.80
33863;DHT22;20158;51.436;-2.742;2023-05-31T00:28:43;19.10;42.90
33863;DHT22;20158;51.436;-2.742;2023-05-31T00:31:12;19.00;42.70
33863;DHT22;20158;51.436;-2.742;2023-05-31T00:33:38;19.00;42.80
33863;DHT22;20158;51.436;-2.742;2023-05-31T00:36:07;18.90;42.70
33863;DHT22;20158;51.436;-2.742;2023-05-31T00:38:36;18.90;42.80
33863;DHT22;20158;51.436;-2.742;2023-05-31T00:41:15;18.90;42.80
33863;DHT22;20158;51.436;-2.742;2023-05-31T00:43:44;18.80;42.60
33863;DHT22;20158;51.436;-2.742;2023-05-31T00:46:27;18.80;42.70
33863;DHT22;20158;51.436;-2.742;2023-05-31T00:48:54;18.80;42.90
33863;DHT22;20158;51.436;-2.742;2023-05-31T00:51:41;18.70;42.70
33863;DHT22;20158;51.436;-2.742;2023-05-31T00:54:10;18.80;42.90
33863;DHT22;20158;51.436;-2.742;2023-05-31T00:56:37;18.70;42.80
33863;DHT22;20158;51.436;-2.742;2023-05-31T00:59:04;18.70;42.90
33863;DHT22;20158;51.436;-2.742;2023-05-31T01:01:30;18.70;43.00
33863;DHT22;20158;51.436;-2.742;2023-05-31T01:03:59;18.60;42.90
33863;DHT22;20158;51.436;-2.742;2023-05-31T01:06:26;18.60;42.90
33863;DHT22;20158;51.436;-2.742;2023-05-31T01:09:02;18.60;43.00
33863;DHT22;20158;51.436;-2.742;2023-05-31T01:11:50;18.50;42.90
33863;DHT22;20158;51.436;-2.742;2023-05-31T01:16:52;18.50;42.90
33863;DHT22;20158;51.436;-2.742;2023-05-31T01:19:36;18.50;43.00
33863;DHT22;20158;51.436;-2.742;2023-05-31T01:25:49;18.40;43.00
33863;DHT22;20158;51.436;-2.742;2023-05-31T01:28:21;18.40;43.10
33863;DHT22;20158;51.436;-2.742;2023-05-31T01:30:49;18.30;42.70
33863;DHT22;20158;51.436;-2.742;2023-05-31T01:33:20;18.30;42.80
33863;DHT22;20158;51.436;-2.742;2023-05-31T01:35:52;18.30;42.90
33863;DHT22;20158;51.436;-2.742;2023-05-31T01:38:18;18.30;42.90
33863;DHT22;20158;51.436;-2.742;2023-05-31T01:40:50;18.30;43.00
33863;DHT22;20158;51.436;-2.742;2023-05-31T01:43:18;18.20;42.80
33863;DHT22;20158;51.436;-2.742;2023-05-31T01:45:45;18.20;43.00
33863;DHT22;20158;51.436;-2.742;2023-05-31T01:48:37;18.20;43.00
33863;DHT22;20158;51.436;-2.742;2023-05-31T01:51:08;18.10;42.80
33863;DHT22;20158;51.436;-2.742;2023-05-31T01:53:36;18.10;42.80
33863;DHT22;20158;51.436;-2.742;2023-05-31T01:56:03;18.10;42.90
33863;DHT22;20158;51.436;-2.742;2023-05-31T01:58:30;18.00;42.80
33863;DHT22;20158;51.436;-2.742;2023-05-31T02:00:58;18.00;42.90
33863;DHT22;20158;51.436;-2.742;2023-05-31T02:03:28;18.00;43.00
33863;DHT22;20158;51.436;-2.742;2023-05-31T02:06:00;18.00;43.00
33863;DHT22;20158;51.436;-2.742;2023-05-31T02:08:27;17.90;42.90
33863;DHT22;20158;51.436;-2.742;2023-05-31T02:10:54;17.90;43.00
33863;DHT22;20158;51.436;-2.742;2023-05-31T02:13:27;17.90;43.00
33863;DHT22;20158;51.436;-2.742;2023-05-31T02:15:57;17.80;42.90
33863;DHT22;20158;51.436;-2.742;2023-05-31T02:18:24;17.80;42.90
33863;DHT22;20158;51.436;-2.742;2023-05-31T02:20:54;17.80;43.00
33863;DHT22;20158;51.436;-2.742;2023-05-31T02:23:20;17.70;42.80
33863;DHT22;20158;51.436;-2.742;2023-05-31T02:25:49;17.70;42.90
33863;DHT22;20158;51.436;-2.742;2023-05-31T02:28:16;17.70;43.00
33863;DHT22;20158;51.436;-2.742;2023-05-31T02:30:56;17.70;43.00
33863;DHT22;20158;51.436;-2.742;2023-05-31T02:33:23;17.70;43.10
33863;DHT22;20158;51.436;-2.742;2023-05-31T02:35:53;17.60;42.90
33863;DHT22;20158;51.436;-2.742;2023-05-31T02:38:23;17.60;42.90
33863;DHT22;20158;51.436;-2.742;2023-05-31T02:40:49;17.60;43.00
33863;DHT22;20158;51.436;-2.742;2023-05-31T02:43:15;17.60;43.10
33863;DHT22;20158;51.436;-2.742;2023-05-31T02:45:42;17.60;43.10
33863;DHT22;20158;51.436;-2.742;2023-05-31T02:48:18;17.50;43.00
33863;DHT22;20158;51.436;-2.742;2023-05-31T02:50:47;17.50;43.00
33863;DHT22;20158;51.436;-2.742;2023-05-31T02:53:29;17.50;43.00
33863;DHT22;20158;51.436;-2.742;2023-05-31T02:56:04;17.50;43.00
33863;DHT22;20158;51.436;-2.742;2023-05-31T02:58:54;17.50;43.10
33863;DHT22;20158;51.436;-2.742;2023-05-31T03:01:47;17.40;42.90
33863;DHT22;20158;51.436;-2.742;2023-05-31T03:04:27;17.40;42.90
33863;DHT22;20158;51.436;-2.742;2023-05-31T03:06:55;17.40;43.00
33863;DHT22;20158;51.436;-2.742;2023-05-31T03:09:24;17.40;43.10
33863;DHT22;20158;51.436;-2.742;2023-05-31T03:11:51;17.30;43.00
33863;DHT22;20158;51.436;-2.742;2023-05-31T03:14:23;17.30;43.10
33863;DHT22;20158;51.436;-2.742;2023-05-31T03:16:53;17.30;43.20
33863;DHT22;20158;51.436;-2.742;2023-05-31T03:19:19;17.20;43.00
33863;DHT22;20158;51.436;-2.742;2023-05-31T03:21:49;17.20;43.70
33863;DHT22;20158;51.436;-2.742;2023-05-31T03:24:15;17.20;43.30
33863;DHT22;20158;51.436;-2.742;2023-05-31T03:26:46;17.20;43.40
33863;DHT22;20158;51.436;-2.742;2023-05-31T03:29:12;17.10;43.20
33863;DHT22;20158;51.436;-2.742;2023-05-31T03:31:38;17.10;43.30
33863;DHT22;20158;51.436;-2.742;2023-05-31T03:34:04;17.10;43.40
33863;DHT22;20158;51.436;-2.742;2023-05-31T03:36:31;17.10;43.50
33863;DHT22;20158;51.436;-2.742;2023-05-31T03:39:08;17.00;43.40
33863;DHT22;20158;51.436;-2.742;2023-05-31T03:41:34;17.00;43.40
33863;DHT22;20158;51.436;-2.742;2023-05-31T03:44:10;17.00;43.50
33863;DHT22;20158;51.436;-2.742;2023-05-31T03:46:39;17.00;43.60
33863;DHT22;20158;51.436;-2.742;2023-05-31T03:49:06;17.00;43.70
33863;DHT22;20158;51.436;-2.742;2023-05-31T03:51:33;16.90;43.60
33863;DHT22;20158;51.436;-2.742;2023-05-31T03:54:01;17.00;43.90
33863;DHT22;20158;51.436;-2.742;2023-05-31T03:56:27;16.90;43.70
33863;DHT22;20158;51.436;-2.742;2023-05-31T03:58:54;16.90;43.70
33863;DHT22;20158;51.436;-2.742;2023-05-31T04:01:21;16.90;43.80
33863;DHT22;20158;51.436;-2.742;2023-05-31T04:03:51;16.80;43.70
33863;DHT22;20158;51.436;-2.742;2023-05-31T04:06:20;16.90;43.90
33863;DHT22;20158;51.436;-2.742;2023-05-31T04:08:46;16.80;43.70
33863;DHT22;20158;51.436;-2.742;2023-05-31T04:11:13;16.80;43.80
33863;DHT22;20158;51.436;-2.742;2023-05-31T04:13:39;16.80;43.90
33863;DHT22;20158;51.436;-2.742;2023-05-31T04:16:08;16.80;43.90
33863;DHT22;20158;51.436;-2.742;2023-05-31T04:18:35;16.70;43.80
33863;DHT22;20158;51.436;-2.742;2023-05-31T04:21:02;16.70;43.80
33863;DHT22;20158;51.436;-2.742;2023-05-31T04:23:28;16.70;43.90
33863;DHT22;20158;51.436;-2.742;2023-05-31T04:25:58;16.70;44.20
33863;DHT22;20158;51.436;-2.742;2023-05-31T04:28:28;16.70;43.90
33863;DHT22;20158;51.436;-2.742;2023-05-31T04:30:56;16.70;44.00
33863;DHT22;20158;51.436;-2.742;2023-05-31T04:33:23;16.70;44.10
33863;DHT22;20158;51.436;-2.742;2023-05-31T04:35:52;16.70;44.00
33863;DHT22;20158;51.436;-2.742;2023-05-31T04:38:20;16.60;43.90
33863;DHT22;20158;51.436;-2.742;2023-05-31T04:40:49;16.60;43.80
33863;DHT22;20158;51.436;-2.742;2023-05-31T04:43:16;16.70;44.10
33863;DHT22;20158;51.436;-2.742;2023-05-31T04:45:46;16.70;44.10
33863;DHT22;20158;51.436;-2.742;2023-05-31T04:48:19;16.60;43.90
33863;DHT22;20158;51.436;-2.742;2023-05-31T04:50:47;16.60;43.80
33863;DHT22;20158;51.436;-2.742;2023-05-31T04:53:14;16.70;43.80
33863;DHT22;20158;51.436;-2.742;2023-05-31T04:55:43;16.70;43.80
33863;DHT22;20158;51.436;-2.742;2023-05-31T04:58:17;16.70;43.90
33863;DHT22;20158;51.436;-2.742;2023-05-31T05:00:49;16.70;43.90
33863;DHT22;20158;51.436;-2.742;2023-05-31T05:03:31;16.70;43.90
33863;DHT22;20158;51.436;-2.742;2023-05-31T05:06:10;16.80;44.20
33863;DHT22;20158;51.436;-2.742;2023-05-31T05:08:45;16.80;44.00
33863;DHT22;20158;51.436;-2.742;2023-05-31T05:11:14;16.80;44.60
33863;DHT22;20158;51.436;-2.742;2023-05-31T05:13:40;16.80;44.00
33863;DHT22;20158;51.436;-2.742;2023-05-31T05:16:10;16.90;44.10
33863;DHT22;20158;51.436;-2.742;2023-05-31T05:18:38;16.90;44.10
33863;DHT22;20158;51.436;-2.742;2023-05-31T05:21:12;16.90;44.10
33863;DHT22;20158;51.436;-2.742;2023-05-31T05:23:43;16.90;44.10
33863;DHT22;20158;51.436;-2.742;2023-05-31T05:26:10;16.90;44.10
33863;DHT22;20158;51.436;-2.742;2023-05-31T05:28:37;16.90;44.20
33863;DHT22;20158;51.436;-2.742;2023-05-31T05:31:05;16.90;44.20
33863;DHT22;20158;51.436;-2.742;2023-05-31T05:33:41;16.90;44.30
33863;DHT22;20158;51.436;-2.742;2023-05-31T05:36:08;16.90;44.30
33863;DHT22;20158;51.436;-2.742;2023-05-31T05:38:42;16.90;44.30
33863;DHT22;20158;51.436;-2.742;2023-05-31T05:41:08;16.90;44.20
33863;DHT22;20158;51.436;-2.742;2023-05-31T05:43:42;17.00;44.40
33863;DHT22;20158;51.436;-2.742;2023-05-31T05:46:12;17.00;44.50
33863;DHT22;20158;51.436;-2.742;2023-05-31T05:48:47;17.10;44.90
33863;DHT22;20158;51.436;-2.742;2023-05-31T05:51:19;17.10;45.00
33863;DHT22;20158;51.436;-2.742;2023-05-31T05:53:45;17.20;45.30
33863;DHT22;20158;51.436;-2.742;2023-05-31T05:56:11;17.20;45.40
33863;DHT22;20158;51.436;-2.742;2023-05-31T05:58:47;17.20;45.50
33863;DHT22;20158;51.436;-2.742;2023-05-31T06:01:35;17.30;45.80
33863;DHT22;20158;51.436;-2.742;2023-05-31T06:04:01;17.30;45.80
33863;DHT22;20158;51.436;-2.742;2023-05-31T06:06:28;17.40;45.90
33863;DHT22;20158;51.436;-2.742;2023-05-31T06:08:54;17.40;45.90
33863;DHT22;20158;51.436;-2.742;2023-05-31T06:11:21;17.50;46.10
33863;DHT22;20158;51.436;-2.742;2023-05-31T06:13:49;17.50;46.20
33863;DHT22;20158;51.436;-2.742;2023-05-31T06:16:21;17.60;46.30
33863;DHT22;20158;51.436;-2.742;2023-05-31T06:18:50;17.60;46.30
33863;DHT22;20158;51.436;-2.742;2023-05-31T06:21:19;17.60;46.30
33863;DHT22;20158;51.436;-2.742;2023-05-31T06:23:46;17.70;46.50
33863;DHT22;20158;51.436;-2.742;2023-05-31T06:26:12;17.80;46.70
33863;DHT22;20158;51.436;-2.742;2023-05-31T06:28:38;17.80;46.70
33863;DHT22;20158;51.436;-2.742;2023-05-31T06:31:13;17.90;46.90
33863;DHT22;20158;51.436;-2.742;2023-05-31T06:33:39;18.00;46.90
33863;DHT22;20158;51.436;-2.742;2023-05-31T06:36:08;18.10;47.00
33863;DHT22;20158;51.436;-2.742;2023-05-31T06:38:37;18.20;47.00
33863;DHT22;20158;51.436;-2.742;2023-05-31T06:41:13;18.30;47.10
33863;DHT22;20158;51.436;-2.742;2023-05-31T06:43:40;18.30;47.00
33863;DHT22;20158;51.436;-2.742;2023-05-31T06:46:06;18.30;47.00
33863;DHT22;20158;51.436;-2.742;2023-05-31T06:48:53;18.40;47.70
33863;DHT22;20158;51.436;-2.742;2023-05-31T06:51:49;18.50;47.10
33863;DHT22;20158;51.436;-2.742;2023-05-31T06:54:38;18.50;47.00
33863;DHT22;20158;51.436;-2.742;2023-05-31T06:57:05;18.60;47.10
33863;DHT22;20158;51.436;-2.742;2023-05-31T06:59:31;18.70;47.30
33863;DHT22;20158;51.436;-2.742;2023-05-31T07:01:58;18.70;47.10
33863;DHT22;20158;51.436;-2.742;2023-05-31T07:04:24;18.80;47.20
33863;DHT22;20158;51.436;-2.742;2023-05-31T07:06:50;18.90;47.30
33863;DHT22;20158;51.436;-2.742;2023-05-31T07:09:16;19.00;47.30
33863;DHT22;20158;51.436;-2.742;2023-05-31T07:12:01;19.20;47.40
33863;DHT22;20158;51.436;-2.742;2023-05-31T07:14:30;19.30;47.50
33863;DHT22;20158;51.436;-2.742;2023-05-31T07:16:56;19.40;47.90
33863;DHT22;20158;51.436;-2.742;2023-05-31T07:19:22;19.50;48.20
33863;DHT22;20158;51.436;-2.742;2023-05-31T07:21:51;19.60;48.40
33863;DHT22;20158;51.436;-2.742;2023-05-31T07:24:17;19.80;48.90
33863;DHT22;20158;51.436;-2.742;2023-05-31T07:26:50;19.90;48.90
33863;DHT22;20158;51.436;-2.742;2023-05-31T07:29:15;20.00;49.00
33863;DHT22;20158;51.436;-2.742;2023-05-31T07:31:44;20.10;49.00
33863;DHT22;20158;51.436;-2.742;2023-05-31T07:34:10;20.20;49.20
33863;DHT22;20158;51.436;-2.742;2023-05-31T07:36:39;20.20;49.20
33863;DHT22;20158;51.436;-2.742;2023-05-31T07:39:09;20.30;49.40
33863;DHT22;20158;51.436;-2.742;2023-05-31T07:41:36;20.30;49.40
33863;DHT22;20158;51.436;-2.742;2023-05-31T07:44:03;20.30;49.60
33863;DHT22;20158;51.436;-2.742;2023-05-31T07:46:31;20.70;49.90
33863;DHT22;20158;51.436;-2.742;2023-05-31T07:48:57;21.00;49.40
33863;DHT22;20158;51.436;-2.742;2023-05-31T07:51:23;21.00;49.00
33863;DHT22;20158;51.436;-2.742;2023-05-31T07:53:49;21.00;48.80
33863;DHT22;20158;51.436;-2.742;2023-05-31T07:56:18;20.90;48.60
33863;DHT22;20158;51.436;-2.742;2023-05-31T07:58:44;20.80;48.40
33863;DHT22;20158;51.436;-2.742;2023-05-31T08:01:10;20.70;48.30
33863;DHT22;20158;51.436;-2.742;2023-05-31T08:03:36;20.50;48.00
33863;DHT22;20158;51.436;-2.742;2023-05-31T08:06:02;20.50;48.00
33863;DHT22;20158;51.436;-2.742;2023-05-31T08:08:31;20.50;48.00
33863;DHT22;20158;51.436;-2.742;2023-05-31T08:11:01;20.50;47.80
33863;DHT22;20158;51.436;-2.742;2023-05-31T08:13:30;20.50;47.60
33863;DHT22;20158;51.436;-2.742;2023-05-31T08:15:56;20.50;47.40
33863;DHT22;20158;51.436;-2.742;2023-05-31T08:18:28;20.50;47.30
33863;DHT22;20158;51.436;-2.742;2023-05-31T08:20:55;20.50;47.20
33863;DHT22;20158;51.436;-2.742;2023-05-31T08:23:22;20.50;47.10
33863;DHT22;20158;51.436;-2.742;2023-05-31T08:25:48;20.50;47.00
33863;DHT22;20158;51.436;-2.742;2023-05-31T08:28:17;20.40;46.70
33863;DHT22;20158;51.436;-2.742;2023-05-31T08:30:43;20.50;46.80
33863;DHT22;20158;51.436;-2.742;2023-05-31T08:33:09;20.50;46.60
33863;DHT22;20158;51.436;-2.742;2023-05-31T08:35:35;20.50;46.50
33863;DHT22;20158;51.436;-2.742;2023-05-31T08:38:04;20.50;46.40
33863;DHT22;20158;51.436;-2.742;2023-05-31T08:40:30;20.60;46.40
33863;DHT22;20158;51.436;-2.742;2023-05-31T08:43:03;20.70;46.40
33863;DHT22;20158;51.436;-2.742;2023-05-31T08:45:49;20.70;46.30
33863;DHT22;20158;51.436;-2.742;2023-05-31T08:48:28;20.70;46.00
33863;DHT22;20158;51.436;-2.742;2023-05-31T08:50:56;20.70;45.90
33863;DHT22;20158;51.436;-2.742;2023-05-31T08:53:29;20.80;45.90
33863;DHT22;20158;51.436;-2.742;2023-05-31T08:55:55;20.80;45.80
33863;DHT22;20158;51.436;-2.742;2023-05-31T08:58:24;20.90;45.80
33863;DHT22;20158;51.436;-2.742;2023-05-31T09:00:53;21.00;45.80
33863;DHT22;20158;51.436;-2.742;2023-05-31T09:03:21;21.10;45.80
33863;DHT22;20158;51.436;-2.742;2023-05-31T09:05:50;21.10;45.70
33863;DHT22;20158;51.436;-2.742;2023-05-31T09:08:23;21.10;45.50
33863;DHT22;20158;51.436;-2.742;2023-05-31T09:10:55;21.20;45.60
33863;DHT22;20158;51.436;-2.742;2023-05-31T09:13:21;21.20;45.50
33863;DHT22;20158;51.436;-2.742;2023-05-31T09:15:51;21.30;45.60
33863;DHT22;20158;51.436;-2.742;2023-05-31T09:18:21;21.30;45.40
33863;DHT22;20158;51.436;-2.742;2023-05-31T09:20:53;21.40;45.50
33863;DHT22;20158;51.436;-2.742;2023-05-31T09:23:21;21.40;45.40
33863;DHT22;20158;51.436;-2.742;2023-05-31T09:25:55;21.40;45.20
33863;DHT22;20158;51.436;-2.742;2023-05-31T09:28:30;21.50;45.30
33863;DHT22;20158;51.436;-2.742;2023-05-31T09:31:07;21.50;45.20
33863;DHT22;20158;51.436;-2.742;2023-05-31T09:33:38;21.50;45.10
33863;DHT22;20158;51.436;-2.742;2023-05-31T09:36:05;21.50;45.10
33863;DHT22;20158;51.436;-2.742;2023-05-31T09:38:33;21.50;45.00
33863;DHT22;20158;51.436;-2.742;2023-05-31T09:41:13;21.50;45.00
33863;DHT22;20158;51.436;-2.742;2023-05-31T09:43:44;21.50;45.00
33863;DHT22;20158;51.436;-2.742;2023-05-31T09:46:21;21.50;45.00
33863;DHT22;20158;51.436;-2.742;2023-05-31T09:49:01;21.50;45.00
33863;DHT22;20158;51.436;-2.742;2023-05-31T09:51:30;21.60;45.00
33863;DHT22;20158;51.436;-2.742;2023-05-31T09:54:14;21.70;45.10
33863;DHT22;20158;51.436;-2.742;2023-05-31T09:56:41;21.70;44.90
33863;DHT22;20158;51.436;-2.742;2023-05-31T09:59:08;21.90;45.20
33863;DHT22;20158;51.436;-2.742;2023-05-31T10:01:37;21.90;45.70
33863;DHT22;20158;51.436;-2.742;2023-05-31T10:04:04;22.00;45.00
33863;DHT22;20158;51.436;-2.742;2023-05-31T10:06:31;22.10;45.00
33863;DHT22;20158;51.436;-2.742;2023-05-31T10:09:05;22.10;45.00
33863;DHT22;20158;51.436;-2.742;2023-05-31T10:11:50;22.20;45.00
33863;DHT22;20158;51.436;-2.742;2023-05-31T10:14:25;22.30;45.10
33863;DHT22;20158;51.436;-2.742;2023-05-31T10:16:55;22.40;45.00
33863;DHT22;20158;51.436;-2.742;2023-05-31T10:19:27;22.60;45.20
33863;DHT22;20158;51.436;-2.742;2023-05-31T10:21:58;22.70;45.10
33863;DHT22;20158;51.436;-2.742;2023-05-31T10:24:34;22.80;45.00
33863;DHT22;20158;51.436;-2.742;2023-05-31T10:27:08;23.00;45.20
33863;DHT22;20158;51.436;-2.742;2023-05-31T10:29:51;23.10;45.20
33863;DHT22;20158;51.436;-2.742;2023-05-31T10:32:39;23.30;45.20
33863;DHT22;20158;51.436;-2.742;2023-05-31T10:35:06;23.60;45.30
33863;DHT22;20158;51.436;-2.742;2023-05-31T10:37:34;23.90;45.40
33863;DHT22;20158;51.436;-2.742;2023-05-31T10:42:46;24.20;45.20
33863;DHT22;20158;51.436;-2.742;2023-05-31T10:45:28;24.40;45.20
33863;DHT22;20158;51.436;-2.742;2023-05-31T10:48:50;24.60;45.20
33863;DHT22;20158;51.436;-2.742;2023-05-31T10:51:18;25.00;45.50
33863;DHT22;20158;51.436;-2.742;2023-05-31T10:53:46;25.30;45.10
33863;DHT22;20158;51.436;-2.742;2023-05-31T10:56:16;25.50;44.80
33863;DHT22;20158;51.436;-2.742;2023-05-31T10:58:47;25.70;44.60
33863;DHT22;20158;51.436;-2.742;2023-05-31T11:01:22;25.80;44.40
33863;DHT22;20158;51.436;-2.742;2023-05-31T11:03:50;25.80;44.30
33863;DHT22;20158;51.436;-2.742;2023-05-31T11:06:27;25.90;44.20
33863;DHT22;20158;51.436;-2.742;2023-05-31T11:09:01;26.10;44.10
33863;DHT22;20158;51.436;-2.742;2023-05-31T11:14:07;26.40;43.70
33863;DHT22;20158;51.436;-2.742;2023-05-31T11:19:34;26.70;43.30
33863;DHT22;20158;51.436;-2.742;2023-05-31T11:27:11;27.00;42.80
33863;DHT22;20158;51.436;-2.742;2023-05-31T11:32:14;27.70;42.10
33863;DHT22;20158;51.436;-2.742;2023-05-31T11:34:52;28.00;41.90
33863;DHT22;20158;51.436;-2.742;2023-05-31T11:37:24;28.10;41.50
33863;DHT22;20158;51.436;-2.742;2023-05-31T11:39:53;28.30;41.40
33863;DHT22;20158;51.436;-2.742;2023-05-31T11:42:23;28.40;41.20
33863;DHT22;20158;51.436;-2.742;2023-05-31T11:44:54;28.60;41.00
33863;DHT22;20158;51.436;-2.742;2023-05-31T11:47:27;28.70;40.80
33863;DHT22;20158;51.436;-2.742;2023-05-31T11:49:56;28.80;40.60
33863;DHT22;20158;51.436;-2.742;2023-05-31T11:52:23;28.90;40.50
33863;DHT22;20158;51.436;-2.742;2023-05-31T11:54:49;28.90;40.40
33863;DHT22;20158;51.436;-2.742;2023-05-31T11:57:21;29.00;40.30
33863;DHT22;20158;51.436;-2.742;2023-05-31T11:59:50;29.30;40.20
33863;DHT22;20158;51.436;-2.742;2023-05-31T12:02:17;29.50;39.90
33863;DHT22;20158;51.436;-2.742;2023-05-31T12:04:44;29.50;39.70
33863;DHT22;20158;51.436;-2.742;2023-05-31T12:07:16;29.50;39.50
33863;DHT22;20158;51.436;-2.742;2023-05-31T12:09:46;29.60;39.30
33863;DHT22;20158;51.436;-2.742;2023-05-31T12:12:12;29.70;39.40
33863;DHT22;20158;51.436;-2.742;2023-05-31T12:14:41;29.80;39.40
33863;DHT22;20158;51.436;-2.742;2023-05-31T12:17:14;29.90;39.30
33863;DHT22;20158;51.436;-2.742;2023-05-31T12:19:40;30.10;39.10
33863;DHT22;20158;51.436;-2.742;2023-05-31T12:22:09;30.40;38.90
33863;DHT22;20158;51.436;-2.742;2023-05-31T12:24:36;30.80;38.60
33863;DHT22;20158;51.436;-2.742;2023-05-31T12:27:08;30.90;38.10
33863;DHT22;20158;51.436;-2.742;2023-05-31T12:29:39;31.00;38.10
33863;DHT22;20158;51.436;-2.742;2023-05-31T12:32:11;31.00;38.00
33863;DHT22;20158;51.436;-2.742;2023-05-31T12:34:38;31.00;38.00
33863;DHT22;20158;51.436;-2.742;2023-05-31T12:37:09;30.90;38.00
33863;DHT22;20158;51.436;-2.742;2023-05-31T12:39:37;30.80;38.00
33863;DHT22;20158;51.436;-2.742;2023-05-31T12:42:04;30.80;38.10
33863;DHT22;20158;51.436;-2.742;2023-05-31T12:44:43;30.80;38.10
33863;DHT22;20158;51.436;-2.742;2023-05-31T12:47:09;30.80;38.10
33863;DHT22;20158;51.436;-2.742;2023-05-31T12:49:36;30.80;38.00
33863;DHT22;20158;51.436;-2.742;2023-05-31T12:52:07;30.70;37.90
33863;DHT22;20158;51.436;-2.742;2023-05-31T12:54:37;30.60;37.80
33863;DHT22;20158;51.436;-2.742;2023-05-31T12:57:06;30.70;37.80
33863;DHT22;20158;51.436;-2.742;2023-05-31T12:59:33;30.60;37.60
33863;DHT22;20158;51.436;-2.742;2023-05-31T13:01:59;30.60;37.80
33863;DHT22;20158;51.436;-2.742;2023-05-31T13:04:29;30.70;37.80
33863;DHT22;20158;51.436;-2.742;2023-05-31T13:06:58;30.90;37.60
33863;DHT22;20158;51.436;-2.742;2023-05-31T13:09:30;31.20;37.30
33863;DHT22;20158;51.436;-2.742;2023-05-31T13:11:57;31.50;37.10
33863;DHT22;20158;51.436;-2.742;2023-05-31T13:14:23;31.90;36.90
33863;DHT22;20158;51.436;-2.742;2023-05-31T13:16:49;32.20;36.70
33863;DHT22;20158;51.436;-2.742;2023-05-31T13:19:21;32.40;36.30
33863;DHT22;20158;51.436;-2.742;2023-05-31T13:21:47;32.70;36.20
33863;DHT22;20158;51.436;-2.742;2023-05-31T13:24:13;32.90;35.90
33863;DHT22;20158;51.436;-2.742;2023-05-31T13:26:45;33.00;35.70
33863;DHT22;20158;51.436;-2.742;2023-05-31T13:29:11;32.90;35.70
33863;DHT22;20158;51.436;-2.742;2023-05-31T13:31:40;33.00;35.80
33863;DHT22;20158;51.436;-2.742;2023-05-31T13:34:06;33.10;35.60
33863;DHT22;20158;51.436;-2.742;2023-05-31T13:36:41;33.20;35.60
33863;DHT22;20158;51.436;-2.742;2023-05-31T13:39:07;33.40;35.50
33863;DHT22;20158;51.436;-2.742;2023-05-31T13:41:33;33.50;35.30
33863;DHT22;20158;51.436;-2.742;2023-05-31T13:43:59;33.70;35.10
33863;DHT22;20158;51.436;-2.742;2023-05-31T13:46:25;34.00;35.00
33863;DHT22;20158;51.436;-2.742;2023-05-31T13:49:05;34.10;34.70
33863;DHT22;20158;51.436;-2.742;2023-05-31T13:51:40;34.00;34.70
33863;DHT22;20158;51.436;-2.742;2023-05-31T13:54:13;34.10;34.80
33863;DHT22;20158;51.436;-2.742;2023-05-31T13:56:40;34.30;34.60
33863;DHT22;20158;51.436;-2.742;2023-05-31T13:59:06;34.40;34.40
33863;DHT22;20158;51.436;-2.742;2023-05-31T14:01:35;34.40;34.40
33863;DHT22;20158;51.436;-2.742;2023-05-31T14:04:07;34.50;34.20
33863;DHT22;20158;51.436;-2.742;2023-05-31T14:06:33;34.50;34.30
33863;DHT22;20158;51.436;-2.742;2023-05-31T14:08:59;34.50;34.20
33863;DHT22;20158;51.436;-2.742;2023-05-31T14:11:28;34.70;34.20
33863;DHT22;20158;51.436;-2.742;2023-05-31T14:14:00;34.90;34.00
33863;DHT22;20158;51.436;-2.742;2023-05-31T14:16:26;35.20;33.90
33863;DHT22;20158;51.436;-2.742;2023-05-31T14:18:56;35.50;33.90
33863;DHT22;20158;51.436;-2.742;2023-05-31T14:21:22;35.80;33.60
33863;DHT22;20158;51.436;-2.742;2023-05-31T14:23:54;36.00;33.30
33863;DHT22;20158;51.436;-2.742;2023-05-31T14:26:27;35.90;33.30
33863;DHT22;20158;51.436;-2.742;2023-05-31T14:28:53;35.80;33.40
33863;DHT22;20158;51.436;-2.742;2023-05-31T14:31:19;35.80;33.30
33863;DHT22;20158;51.436;-2.742;2023-05-31T14:33:45;35.70;33.30
33863;DHT22;20158;51.436;-2.742;2023-05-31T14:36:17;35.60;33.30
33863;DHT22;20158;51.436;-2.742;2023-05-31T14:38:43;35.70;33.40
33863;DHT22;20158;51.436;-2.742;2023-05-31T14:41:09;35.80;33.30
33863;DHT22;20158;51.436;-2.742;2023-05-31T14:43:35;35.90;33.20
33863;DHT22;20158;51.436;-2.742;2023-05-31T14:46:03;36.00;33.00
33863;DHT22;20158;51.436;-2.742;2023-05-31T14:48:29;36.20;33.00
33863;DHT22;20158;51.436;-2.742;2023-05-31T14:50:55;36.40;32.90
33863;DHT22;20158;51.436;-2.742;2023-05-31T14:53:21;36.40;32.80
33863;DHT22;20158;51.436;-2.742;2023-05-31T14:55:47;36.50;32.80
33863;DHT22;20158;51.436;-2.742;2023-05-31T14:58:29;36.50;32.80
33863;DHT22;20158;51.436;-2.742;2023-05-31T15:00:55;36.50;32.70
33863;DHT22;20158;51.436;-2.742;2023-05-31T15:03:21;36.50;32.70
33863;DHT22;20158;51.436;-2.742;2023-05-31T15:05:54;36.50;32.70
33863;DHT22;20158;51.436;-2.742;2023-05-31T15:08:21;36.40;32.70
33863;DHT22;20158;51.436;-2.742;2023-05-31T15:10:50;36.30;32.70
33863;DHT22;20158;51.436;-2.742;2023-05-31T15:13:27;36.10;32.70
33863;DHT22;20158;51.436;-2.742;2023-05-31T15:15:53;35.90;32.80
33863;DHT22;20158;51.436;-2.742;2023-05-31T15:18:19;35.90;33.00
33863;DHT22;20158;51.436;-2.742;2023-05-31T15:20:45;35.80;33.30
33863;DHT22;20158;51.436;-2.742;2023-05-31T15:23:27;35.90;33.00
33863;DHT22;20158;51.436;-2.742;2023-05-31T15:25:53;35.90;33.10
33863;DHT22;20158;51.436;-2.742;2023-05-31T15:28:22;36.00;33.10
33863;DHT22;20158;51.436;-2.742;2023-05-31T15:30:48;36.20;33.10
33863;DHT22;20158;51.436;-2.742;2023-05-31T15:33:35;36.30;32.90
33863;DHT22;20158;51.436;-2.742;2023-05-31T15:36:07;36.50;32.90
33863;DHT22;20158;51.436;-2.742;2023-05-31T15:39:00;36.60;32.80
33863;DHT22;20158;51.436;-2.742;2023-05-31T15:41:30;36.80;32.60
33863;DHT22;20158;51.436;-2.742;2023-05-31T15:44:01;37.00;32.60
33863;DHT22;20158;51.436;-2.742;2023-05-31T15:46:30;37.10;32.50
33863;DHT22;20158;51.436;-2.742;2023-05-31T15:48:56;37.20;32.40
33863;DHT22;20158;51.436;-2.742;2023-05-31T15:51:23;37.20;32.30
33863;DHT22;20158;51.436;-2.742;2023-05-31T15:53:52;37.40;32.30
33863;DHT22;20158;51.436;-2.742;2023-05-31T15:56:24;37.40;32.20